sensor_id;sensor_type;location;lat;lon;timestamp;P1;durP1;ratioP1;P2;durP2;ratioP2
64052;SDS011;50299;49.524;8.536;2022-08-19T00:01:23;15.20;;;13.70;;
64052;SDS011;50299;49.524;8.536;2022-08-19T00:03:58;16.33;;;14.70;;
64052;SDS011;50299;49.524;8.536;2022-08-19T00:06:27;15.75;;;13.57;;
64052;SDS011;50299;49.524;8.536;2022-08-19T00:08:56;15.85;;;14.15;;
64052;SDS011;50299;49.524;8.536;2022-08-19T00:11:23;17.20;;;14.80;;
64052;SDS011;50299;49.524;8.536;2022-08-19T00:13:52;14.98;;;13.38;;
64052;SDS011;50299;49.524;8.536;2022-08-19T00:16:22;17.80;;;16.00;;
64052;SDS011;50299;49.524;8.536;2022-08-19T00:18:52;16.02;;;14.43;;
64052;SDS011;50299;49.524;8.536;2022-08-19T00:21:25;15.80;;;14.23;;
64052;SDS011;50299;49.524;8.536;2022-08-19T00:23:53;17.25;;;15.45;;
64052;SDS011;50299;49.524;8.536;2022-08-19T00:26:20;15.70;;;14.18;;
64052;SDS011;50299;49.524;8.536;2022-08-19T00:28:47;19.63;;;15.90;;
64052;SDS011;50299;49.524;8.536;2022-08-19T00:31:13;18.20;;;16.27;;
64052;SDS011;50299;49.524;8.536;2022-08-19T00:33:40;16.52;;;14.82;;
64052;SDS011;50299;49.524;8.536;2022-08-19T00:36:07;18.40;;;16.50;;
64052;SDS011;50299;49.524;8.536;2022-08-19T00:38:35;18.73;;;16.40;;
64052;SDS011;50299;49.524;8.536;2022-08-19T00:41:04;17.60;;;15.90;;
64052;SDS011;50299;49.524;8.536;2022-08-19T00:43:31;18.73;;;16.50;;
64052;SDS011;50299;49.524;8.536;2022-08-19T00:45:58;17.42;;;15.35;;
64052;SDS011;50299;49.524;8.536;2022-08-19T00:48:25;21.70;;;17.25;;
64052;SDS011;50299;49.524;8.536;2022-08-19T00:50:51;18.90;;;17.00;;
64052;SDS011;50299;49.524;8.536;2022-08-19T00:53:27;19.08;;;17.13;;
64052;SDS011;50299;49.524;8.536;2022-08-19T00:55:56;17.63;;;15.93;;
64052;SDS011;50299;49.524;8.536;2022-08-19T00:58:27;19.85;;;17.73;;
64052;SDS011;50299;49.524;8.536;2022-08-19T01:00:56;19.25;;;17.40;;
64052;SDS011;50299;49.524;8.536;2022-08-19T01:03:22;19.23;;;17.27;;
64052;SDS011;50299;49.524;8.536;2022-08-19T01:05:50;19.33;;;17.42;;
64052;SDS011;50299;49.524;8.536;2022-08-19T01:08:20;18.77;;;16.98;;
64052;SDS011;50299;49.524;8.536;2022-08-19T01:10:49;17.98;;;16.27;;
64052;SDS011;50299;49.524;8.536;2022-08-19T01:13:23;19.90;;;17.95;;
64052;SDS011;50299;49.524;8.536;2022-08-19T01:15:53;20.15;;;18.15;;
64052;SDS011;50299;49.524;8.536;2022-08-19T01:18:24;16.58;;;15.02;;
64052;SDS011;50299;49.524;8.536;2022-08-19T01:20:53;19.02;;;17.17;;
64052;SDS011;50299;49.524;8.536;2022-08-19T01:23:22;18.33;;;16.52;;
64052;SDS011;50299;49.524;8.536;2022-08-19T01:26:19;19.48;;;17.38;;
64052;SDS011;50299;49.524;8.536;2022-08-19T01:28:50;18.70;;;16.60;;
64052;SDS011;50299;49.524;8.536;2022-08-19T01:31:26;19.50;;;17.60;;
64052;SDS011;50299;49.524;8.536;2022-08-19T01:33:58;18.50;;;16.70;;
64052;SDS011;50299;49.524;8.536;2022-08-19T01:36:30;20.30;;;18.40;;
64052;SDS011;50299;49.524;8.536;2022-08-19T01:38:57;18.92;;;17.02;;
64052;SDS011;50299;49.524;8.536;2022-08-19T01:41:25;19.88;;;17.88;;
64052;SDS011;50299;49.524;8.536;2022-08-19T01:43:52;17.60;;;15.90;;
64052;SDS011;50299;49.524;8.536;2022-08-19T01:46:40;17.67;;;15.98;;
64052;SDS011;50299;49.524;8.536;2022-08-19T01:49:07;17.77;;;15.98;;
64052;SDS011;50299;49.524;8.536;2022-08-19T01:51:34;18.83;;;16.85;;
64052;SDS011;50299;49.524;8.536;2022-08-19T01:54:05;19.45;;;17.55;;
64052;SDS011;50299;49.524;8.536;2022-08-19T01:56:32;18.65;;;16.75;;
64052;SDS011;50299;49.524;8.536;2022-08-19T01:59:00;16.73;;;14.95;;
64052;SDS011;50299;49.524;8.536;2022-08-19T02:01:29;17.45;;;15.65;;
64052;SDS011;50299;49.524;8.536;2022-08-19T02:03:58;18.73;;;16.65;;
64052;SDS011;50299;49.524;8.536;2022-08-19T02:06:26;19.92;;;17.92;;
64052;SDS011;50299;49.524;8.536;2022-08-19T02:08:53;19.70;;;17.77;;
64052;SDS011;50299;49.524;8.536;2022-08-19T02:11:30;19.27;;;17.40;;
64052;SDS011;50299;49.524;8.536;2022-08-19T02:14:00;20.38;;;18.27;;
64052;SDS011;50299;49.524;8.536;2022-08-19T02:16:28;19.33;;;17.38;;
64052;SDS011;50299;49.524;8.536;2022-08-19T02:18:54;19.67;;;17.88;;
64052;SDS011;50299;49.524;8.536;2022-08-19T02:21:21;17.67;;;15.90;;
64052;SDS011;50299;49.524;8.536;2022-08-19T02:23:49;19.98;;;18.20;;
64052;SDS011;50299;49.524;8.536;2022-08-19T02:26:16;18.45;;;16.65;;
64052;SDS011;50299;49.524;8.536;2022-08-19T02:28:44;20.48;;;18.48;;
64052;SDS011;50299;49.524;8.536;2022-08-19T02:31:11;18.13;;;16.33;;
64052;SDS011;50299;49.524;8.536;2022-08-19T02:33:40;18.67;;;16.77;;
64052;SDS011;50299;49.524;8.536;2022-08-19T02:36:08;16.40;;;14.80;;
64052;SDS011;50299;49.524;8.536;2022-08-19T02:38:35;20.00;;;17.80;;
64052;SDS011;50299;49.524;8.536;2022-08-19T02:41:05;17.45;;;15.75;;
64052;SDS011;50299;49.524;8.536;2022-08-19T02:43:35;18.00;;;16.23;;
64052;SDS011;50299;49.524;8.536;2022-08-19T02:46:13;17.20;;;15.40;;
64052;SDS011;50299;49.524;8.536;2022-08-19T02:48:48;16.30;;;14.75;;
64052;SDS011;50299;49.524;8.536;2022-08-19T02:51:15;17.83;;;16.23;;
64052;SDS011;50299;49.524;8.536;2022-08-19T02:53:47;17.70;;;16.08;;
64052;SDS011;50299;49.524;8.536;2022-08-19T02:56:13;17.95;;;16.20;;
64052;SDS011;50299;49.524;8.536;2022-08-19T02:58:40;18.17;;;16.45;;
64052;SDS011;50299;49.524;8.536;2022-08-19T03:01:08;19.27;;;16.20;;
64052;SDS011;50299;49.524;8.536;2022-08-19T03:03:37;17.60;;;15.90;;
64052;SDS011;50299;49.524;8.536;2022-08-19T03:06:11;17.67;;;15.88;;
64052;SDS011;50299;49.524;8.536;2022-08-19T03:08:40;17.25;;;15.52;;
64052;SDS011;50299;49.524;8.536;2022-08-19T03:11:28;18.83;;;16.88;;
64052;SDS011;50299;49.524;8.536;2022-08-19T03:16:24;18.60;;;16.75;;
64052;SDS011;50299;49.524;8.536;2022-08-19T03:18:52;18.88;;;17.15;;
64052;SDS011;50299;49.524;8.536;2022-08-19T03:21:21;19.80;;;17.85;;
64052;SDS011;50299;49.524;8.536;2022-08-19T03:23:56;19.27;;;17.58;;
64052;SDS011;50299;49.524;8.536;2022-08-19T03:26:24;19.10;;;17.10;;
64052;SDS011;50299;49.524;8.536;2022-08-19T03:28:51;18.90;;;17.10;;
64052;SDS011;50299;49.524;8.536;2022-08-19T03:31:24;21.13;;;19.15;;
64052;SDS011;50299;49.524;8.536;2022-08-19T03:34:15;20.83;;;17.65;;
64052;SDS011;50299;49.524;8.536;2022-08-19T03:36:44;20.27;;;17.67;;
64052;SDS011;50299;49.524;8.536;2022-08-19T03:39:11;21.00;;;18.83;;
64052;SDS011;50299;49.524;8.536;2022-08-19T03:41:40;21.17;;;19.17;;
64052;SDS011;50299;49.524;8.536;2022-08-19T03:44:15;20.80;;;18.35;;
64052;SDS011;50299;49.524;8.536;2022-08-19T03:46:45;20.27;;;18.17;;
64052;SDS011;50299;49.524;8.536;2022-08-19T03:49:14;20.33;;;18.15;;
64052;SDS011;50299;49.524;8.536;2022-08-19T03:51:43;20.60;;;18.40;;
64052;SDS011;50299;49.524;8.536;2022-08-19T03:54:12;21.67;;;19.40;;
64052;SDS011;50299;49.524;8.536;2022-08-19T03:56:42;22.77;;;20.58;;
64052;SDS011;50299;49.524;8.536;2022-08-19T03:59:10;21.58;;;19.33;;
64052;SDS011;50299;49.524;8.536;2022-08-19T04:01:39;23.45;;;21.02;;
64052;SDS011;50299;49.524;8.536;2022-08-19T04:04:06;19.02;;;17.05;;
64052;SDS011;50299;49.524;8.536;2022-08-19T04:06:35;21.50;;;19.25;;
64052;SDS011;50299;49.524;8.536;2022-08-19T04:09:06;21.80;;;19.80;;
64052;SDS011;50299;49.524;8.536;2022-08-19T04:11:37;22.50;;;20.20;;
64052;SDS011;50299;49.524;8.536;2022-08-19T04:14:11;23.15;;;20.88;;
64052;SDS011;50299;49.524;8.536;2022-08-19T04:16:40;21.75;;;19.55;;
64052;SDS011;50299;49.524;8.536;2022-08-19T04:19:09;21.52;;;19.23;;
64052;SDS011;50299;49.524;8.536;2022-08-19T04:21:37;20.40;;;18.15;;
64052;SDS011;50299;49.524;8.536;2022-08-19T04:24:04;21.77;;;19.67;;
64052;SDS011;50299;49.524;8.536;2022-08-19T04:26:32;22.80;;;20.58;;
64052;SDS011;50299;49.524;8.536;2022-08-19T04:29:01;19.60;;;17.63;;
64052;SDS011;50299;49.524;8.536;2022-08-19T04:31:34;21.05;;;18.67;;
64052;SDS011;50299;49.524;8.536;2022-08-19T04:34:05;21.27;;;19.17;;
64052;SDS011;50299;49.524;8.536;2022-08-19T04:36:33;19.40;;;17.30;;
64052;SDS011;50299;49.524;8.536;2022-08-19T04:41:31;23.17;;;18.02;;
64052;SDS011;50299;49.524;8.536;2022-08-19T04:44:17;19.80;;;17.63;;
64052;SDS011;50299;49.524;8.536;2022-08-19T04:46:48;18.95;;;16.95;;
64052;SDS011;50299;49.524;8.536;2022-08-19T04:49:20;24.58;;;20.17;;
64052;SDS011;50299;49.524;8.536;2022-08-19T04:51:48;21.92;;;19.73;;
64052;SDS011;50299;49.524;8.536;2022-08-19T04:54:17;19.35;;;16.98;;
64052;SDS011;50299;49.524;8.536;2022-08-19T04:57:05;20.75;;;18.70;;
64052;SDS011;50299;49.524;8.536;2022-08-19T04:59:34;20.70;;;18.55;;
64052;SDS011;50299;49.524;8.536;2022-08-19T05:02:03;19.88;;;17.45;;
64052;SDS011;50299;49.524;8.536;2022-08-19T05:04:30;18.63;;;16.80;;
64052;SDS011;50299;49.524;8.536;2022-08-19T05:06:58;19.73;;;17.63;;
64052;SDS011;50299;49.524;8.536;2022-08-19T05:09:26;19.52;;;17.52;;
64052;SDS011;50299;49.524;8.536;2022-08-19T05:12:14;20.17;;;17.50;;
64052;SDS011;50299;49.524;8.536;2022-08-19T05:14:40;20.42;;;18.30;;
64052;SDS011;50299;49.524;8.536;2022-08-19T05:17:07;22.80;;;17.85;;
64052;SDS011;50299;49.524;8.536;2022-08-19T05:19:53;31.80;;;20.80;;
64052;SDS011;50299;49.524;8.536;2022-08-19T05:22:39;22.50;;;19.05;;
64052;SDS011;50299;49.524;8.536;2022-08-19T05:25:07;21.30;;;19.08;;
64052;SDS011;50299;49.524;8.536;2022-08-19T05:27:38;19.55;;;17.58;;
64052;SDS011;50299;49.524;8.536;2022-08-19T05:30:06;20.13;;;18.02;;
64052;SDS011;50299;49.524;8.536;2022-08-19T05:32:33;22.90;;;17.17;;
64052;SDS011;50299;49.524;8.536;2022-08-19T05:34:59;19.73;;;16.95;;
64052;SDS011;50299;49.524;8.536;2022-08-19T05:37:26;17.17;;;15.57;;
64052;SDS011;50299;49.524;8.536;2022-08-19T05:39:53;16.92;;;15.30;;
64052;SDS011;50299;49.524;8.536;2022-08-19T05:42:20;17.95;;;16.15;;
64052;SDS011;50299;49.524;8.536;2022-08-19T05:44:49;17.27;;;15.48;;
64052;SDS011;50299;49.524;8.536;2022-08-19T05:47:16;18.15;;;16.45;;
64052;SDS011;50299;49.524;8.536;2022-08-19T05:49:45;17.88;;;15.93;;
64052;SDS011;50299;49.524;8.536;2022-08-19T05:52:15;17.77;;;16.17;;
64052;SDS011;50299;49.524;8.536;2022-08-19T05:54:46;18.48;;;16.77;;
64052;SDS011;50299;49.524;8.536;2022-08-19T05:57:16;17.45;;;15.75;;
64052;SDS011;50299;49.524;8.536;2022-08-19T05:59:45;17.35;;;15.63;;
64052;SDS011;50299;49.524;8.536;2022-08-19T06:02:14;17.00;;;15.40;;
64052;SDS011;50299;49.524;8.536;2022-08-19T06:04:40;18.25;;;16.45;;
64052;SDS011;50299;49.524;8.536;2022-08-19T06:07:08;17.45;;;15.57;;
64052;SDS011;50299;49.524;8.536;2022-08-19T06:09:38;16.70;;;14.98;;
64052;SDS011;50299;49.524;8.536;2022-08-19T06:12:05;17.67;;;15.98;;
64052;SDS011;50299;49.524;8.536;2022-08-19T06:14:33;18.50;;;16.70;;
64052;SDS011;50299;49.524;8.536;2022-08-19T06:17:05;17.50;;;15.80;;
64052;SDS011;50299;49.524;8.536;2022-08-19T06:19:32;17.25;;;15.75;;
64052;SDS011;50299;49.524;8.536;2022-08-19T06:22:05;17.02;;;15.43;;
64052;SDS011;50299;49.524;8.536;2022-08-19T06:24:32;15.90;;;14.38;;
64052;SDS011;50299;49.524;8.536;2022-08-19T06:27:00;17.23;;;15.68;;
64052;SDS011;50299;49.524;8.536;2022-08-19T06:29:27;16.48;;;14.98;;
64052;SDS011;50299;49.524;8.536;2022-08-19T06:31:56;21.90;;;13.05;;
64052;SDS011;50299;49.524;8.536;2022-08-19T09:01:11;8.13;;;7.38;;
64052;SDS011;50299;49.524;8.536;2022-08-19T09:03:39;6.43;;;5.93;;
64052;SDS011;50299;49.524;8.536;2022-08-19T09:06:13;7.03;;;6.43;;
64052;SDS011;50299;49.524;8.536;2022-08-19T09:08:47;7.63;;;6.93;;
64052;SDS011;50299;49.524;8.536;2022-08-19T09:11:31;7.18;;;6.50;;
64052;SDS011;50299;49.524;8.536;2022-08-19T09:17:09;7.70;;;6.95;;
64052;SDS011;50299;49.524;8.536;2022-08-19T09:19:46;7.57;;;6.72;;
64052;SDS011;50299;49.524;8.536;2022-08-19T09:22:18;11.55;;;7.72;;
64052;SDS011;50299;49.524;8.536;2022-08-19T09:24:52;7.82;;;7.00;;
64052;SDS011;50299;49.524;8.536;2022-08-19T09:27:19;6.80;;;6.22;;
64052;SDS011;50299;49.524;8.536;2022-08-19T09:29:47;10.35;;;8.35;;
64052;SDS011;50299;49.524;8.536;2022-08-19T09:32:15;7.88;;;7.13;;
64052;SDS011;50299;49.524;8.536;2022-08-19T09:34:52;8.82;;;7.95;;
64052;SDS011;50299;49.524;8.536;2022-08-19T09:37:21;8.50;;;7.70;;
64052;SDS011;50299;49.524;8.536;2022-08-19T09:39:50;9.02;;;8.23;;
64052;SDS011;50299;49.524;8.536;2022-08-19T09:42:17;10.02;;;7.45;;
64052;SDS011;50299;49.524;8.536;2022-08-19T09:44:55;6.97;;;6.18;;
64052;SDS011;50299;49.524;8.536;2022-08-19T09:47:25;8.43;;;7.63;;
64052;SDS011;50299;49.524;8.536;2022-08-19T09:49:51;7.10;;;6.43;;
64052;SDS011;50299;49.524;8.536;2022-08-19T09:52:18;7.55;;;6.85;;
64052;SDS011;50299;49.524;8.536;2022-08-19T09:54:44;8.20;;;7.20;;
64052;SDS011;50299;49.524;8.536;2022-08-19T09:57:17;32.60;;;9.85;;
64052;SDS011;50299;49.524;8.536;2022-08-19T09:59:43;9.45;;;6.50;;
64052;SDS011;50299;49.524;8.536;2022-08-19T10:02:10;8.23;;;7.43;;
64052;SDS011;50299;49.524;8.536;2022-08-19T10:04:37;5.72;;;5.25;;
64052;SDS011;50299;49.524;8.536;2022-08-19T10:07:31;8.77;;;6.18;;
64052;SDS011;50299;49.524;8.536;2022-08-19T10:10:05;6.25;;;5.70;;
64052;SDS011;50299;49.524;8.536;2022-08-19T10:12:33;7.35;;;6.72;;
64052;SDS011;50299;49.524;8.536;2022-08-19T10:15:00;8.45;;;6.07;;
64052;SDS011;50299;49.524;8.536;2022-08-19T10:17:27;6.10;;;5.60;;
64052;SDS011;50299;49.524;8.536;2022-08-19T10:19:58;7.18;;;6.55;;
64052;SDS011;50299;49.524;8.536;2022-08-19T10:22:26;6.95;;;6.35;;
64052;SDS011;50299;49.524;8.536;2022-08-19T10:24:52;8.20;;;7.43;;
64052;SDS011;50299;49.524;8.536;2022-08-19T10:27:19;7.25;;;6.50;;
64052;SDS011;50299;49.524;8.536;2022-08-19T10:29:46;7.28;;;6.63;;
64052;SDS011;50299;49.524;8.536;2022-08-19T10:32:13;8.35;;;7.65;;
64052;SDS011;50299;49.524;8.536;2022-08-19T10:34:41;8.57;;;7.88;;
64052;SDS011;50299;49.524;8.536;2022-08-19T10:37:14;7.93;;;7.20;;
64052;SDS011;50299;49.524;8.536;2022-08-19T10:39:56;9.02;;;8.23;;
64052;SDS011;50299;49.524;8.536;2022-08-19T10:42:23;11.88;;;10.90;;
64052;SDS011;50299;49.524;8.536;2022-08-19T10:44:49;8.73;;;8.13;;
64052;SDS011;50299;49.524;8.536;2022-08-19T10:47:17;9.95;;;8.98;;
64052;SDS011;50299;49.524;8.536;2022-08-19T10:49:51;9.73;;;9.00;;
64052;SDS011;50299;49.524;8.536;2022-08-19T10:52:41;9.07;;;8.27;;
64052;SDS011;50299;49.524;8.536;2022-08-19T10:55:16;10.00;;;9.10;;
64052;SDS011;50299;49.524;8.536;2022-08-19T10:58:03;10.98;;;9.98;;
64052;SDS011;50299;49.524;8.536;2022-08-19T11:00:30;10.75;;;8.75;;
64052;SDS011;50299;49.524;8.536;2022-08-19T11:02:57;11.13;;;10.23;;
64052;SDS011;50299;49.524;8.536;2022-08-19T11:05:23;8.10;;;7.40;;
64052;SDS011;50299;49.524;8.536;2022-08-19T11:07:50;10.77;;;9.98;;
64052;SDS011;50299;49.524;8.536;2022-08-19T11:10:18;8.35;;;7.65;;
64052;SDS011;50299;49.524;8.536;2022-08-19T11:12:47;10.23;;;9.43;;
64052;SDS011;50299;49.524;8.536;2022-08-19T11:15:14;8.30;;;7.60;;
64052;SDS011;50299;49.524;8.536;2022-08-19T11:17:41;9.02;;;8.13;;
64052;SDS011;50299;49.524;8.536;2022-08-19T11:20:10;9.60;;;8.60;;
64052;SDS011;50299;49.524;8.536;2022-08-19T11:22:39;10.35;;;7.85;;
64052;SDS011;50299;49.524;8.536;2022-08-19T11:25:08;9.32;;;8.63;;
64052;SDS011;50299;49.524;8.536;2022-08-19T11:27:37;8.43;;;7.78;;
64052;SDS011;50299;49.524;8.536;2022-08-19T11:30:05;9.65;;;8.63;;
64052;SDS011;50299;49.524;8.536;2022-08-19T11:32:38;8.00;;;7.40;;
64052;SDS011;50299;49.524;8.536;2022-08-19T11:35:05;8.85;;;8.07;;
64052;SDS011;50299;49.524;8.536;2022-08-19T11:37:32;9.35;;;8.40;;
64052;SDS011;50299;49.524;8.536;2022-08-19T11:40:04;8.45;;;7.78;;
64052;SDS011;50299;49.524;8.536;2022-08-19T11:42:32;6.63;;;6.00;;
64052;SDS011;50299;49.524;8.536;2022-08-19T11:45:17;8.65;;;7.43;;
64052;SDS011;50299;49.524;8.536;2022-08-19T11:47:44;8.82;;;7.90;;
64052;SDS011;50299;49.524;8.536;2022-08-19T11:50:10;9.18;;;8.57;;
64052;SDS011;50299;49.524;8.536;2022-08-19T11:52:36;7.70;;;7.10;;
64052;SDS011;50299;49.524;8.536;2022-08-19T11:55:03;9.18;;;8.48;;
64052;SDS011;50299;49.524;8.536;2022-08-19T11:57:31;9.13;;;8.32;;
64052;SDS011;50299;49.524;8.536;2022-08-19T11:59:57;7.93;;;7.22;;
64052;SDS011;50299;49.524;8.536;2022-08-19T12:02:24;8.70;;;7.38;;
64052;SDS011;50299;49.524;8.536;2022-08-19T12:04:51;9.38;;;8.68;;
64052;SDS011;50299;49.524;8.536;2022-08-19T12:07:17;8.77;;;7.97;;
64052;SDS011;50299;49.524;8.536;2022-08-19T12:09:44;8.43;;;7.82;;
64052;SDS011;50299;49.524;8.536;2022-08-19T12:12:13;8.43;;;7.72;;
64052;SDS011;50299;49.524;8.536;2022-08-19T12:14:40;9.45;;;8.68;;
64052;SDS011;50299;49.524;8.536;2022-08-19T12:17:06;9.88;;;8.98;;
64052;SDS011;50299;49.524;8.536;2022-08-19T12:19:35;9.48;;;8.88;;
64052;SDS011;50299;49.524;8.536;2022-08-19T12:22:03;9.77;;;8.98;;
64052;SDS011;50299;49.524;8.536;2022-08-19T12:24:31;7.82;;;7.22;;
64052;SDS011;50299;49.524;8.536;2022-08-19T12:26:58;7.43;;;6.82;;
64052;SDS011;50299;49.524;8.536;2022-08-19T12:29:28;8.43;;;7.72;;
64052;SDS011;50299;49.524;8.536;2022-08-19T12:31:56;7.25;;;6.65;;
64052;SDS011;50299;49.524;8.536;2022-08-19T12:34:27;7.95;;;7.38;;
64052;SDS011;50299;49.524;8.536;2022-08-19T12:36:58;7.82;;;7.22;;
64052;SDS011;50299;49.524;8.536;2022-08-19T12:39:27;6.03;;;5.57;;
64052;SDS011;50299;49.524;8.536;2022-08-19T12:41:54;6.13;;;5.63;;
64052;SDS011;50299;49.524;8.536;2022-08-19T12:44:21;6.53;;;6.03;;
64052;SDS011;50299;49.524;8.536;2022-08-19T12:46:54;5.38;;;4.90;;
64052;SDS011;50299;49.524;8.536;2022-08-19T12:49:21;5.32;;;4.93;;
64052;SDS011;50299;49.524;8.536;2022-08-19T12:52:08;6.25;;;5.70;;
64052;SDS011;50299;49.524;8.536;2022-08-19T12:54:35;6.65;;;6.18;;
64052;SDS011;50299;49.524;8.536;2022-08-19T12:57:06;6.43;;;5.82;;
64052;SDS011;50299;49.524;8.536;2022-08-19T12:59:35;5.57;;;5.20;;
64052;SDS011;50299;49.524;8.536;2022-08-19T13:02:03;5.90;;;5.50;;
64052;SDS011;50299;49.524;8.536;2022-08-19T13:04:34;4.93;;;4.43;;
64052;SDS011;50299;49.524;8.536;2022-08-19T13:07:07;5.18;;;4.88;;
64052;SDS011;50299;49.524;8.536;2022-08-19T13:09:34;6.65;;;5.05;;
64052;SDS011;50299;49.524;8.536;2022-08-19T13:12:01;5.28;;;4.80;;
64052;SDS011;50299;49.524;8.536;2022-08-19T13:14:29;5.60;;;5.15;;
64052;SDS011;50299;49.524;8.536;2022-08-19T13:16:58;6.60;;;5.47;;
64052;SDS011;50299;49.524;8.536;2022-08-19T13:19:25;6.85;;;5.20;;
64052;SDS011;50299;49.524;8.536;2022-08-19T13:21:52;5.22;;;4.82;;
64052;SDS011;50299;49.524;8.536;2022-08-19T13:24:25;5.22;;;4.78;;
64052;SDS011;50299;49.524;8.536;2022-08-19T13:26:59;5.55;;;5.05;;
64052;SDS011;50299;49.524;8.536;2022-08-19T13:29:26;5.13;;;4.72;;
64052;SDS011;50299;49.524;8.536;2022-08-19T13:32:11;5.50;;;5.13;;
64052;SDS011;50299;49.524;8.536;2022-08-19T13:34:57;5.30;;;4.80;;
64052;SDS011;50299;49.524;8.536;2022-08-19T13:37:23;5.22;;;4.82;;
64052;SDS011;50299;49.524;8.536;2022-08-19T13:40:07;5.40;;;4.97;;
64052;SDS011;50299;49.524;8.536;2022-08-19T13:42:39;5.70;;;5.28;;
64052;SDS011;50299;49.524;8.536;2022-08-19T13:45:06;5.63;;;5.15;;
64052;SDS011;50299;49.524;8.536;2022-08-19T13:47:33;41.35;;;9.00;;
64052;SDS011;50299;49.524;8.536;2022-08-19T13:50:03;5.20;;;4.80;;
64052;SDS011;50299;49.524;8.536;2022-08-19T13:52:30;6.05;;;5.55;;
64052;SDS011;50299;49.524;8.536;2022-08-19T13:54:57;6.28;;;5.82;;
64052;SDS011;50299;49.524;8.536;2022-08-19T13:57:24;5.40;;;4.80;;
64052;SDS011;50299;49.524;8.536;2022-08-19T13:59:50;5.97;;;5.45;;
64052;SDS011;50299;49.524;8.536;2022-08-19T14:02:17;6.63;;;4.78;;
64052;SDS011;50299;49.524;8.536;2022-08-19T14:04:43;5.72;;;5.32;;
64052;SDS011;50299;49.524;8.536;2022-08-19T14:07:10;5.88;;;5.28;;
64052;SDS011;50299;49.524;8.536;2022-08-19T14:09:36;5.60;;;4.95;;
64052;SDS011;50299;49.524;8.536;2022-08-19T14:12:03;5.70;;;5.30;;
64052;SDS011;50299;49.524;8.536;2022-08-19T14:14:30;5.55;;;5.05;;
64052;SDS011;50299;49.524;8.536;2022-08-19T14:16:57;5.25;;;4.85;;
64052;SDS011;50299;49.524;8.536;2022-08-19T14:19:24;5.53;;;4.55;;
64052;SDS011;50299;49.524;8.536;2022-08-19T14:21:55;4.07;;;3.78;;
64052;SDS011;50299;49.524;8.536;2022-08-19T14:26:50;3.67;;;3.45;;
64052;SDS011;50299;49.524;8.536;2022-08-19T14:29:17;5.60;;;3.70;;
64052;SDS011;50299;49.524;8.536;2022-08-19T14:31:43;3.65;;;3.30;;
64052;SDS011;50299;49.524;8.536;2022-08-19T14:34:10;4.03;;;3.58;;
64052;SDS011;50299;49.524;8.536;2022-08-19T14:36:38;5.25;;;4.18;;
64052;SDS011;50299;49.524;8.536;2022-08-19T14:39:05;4.57;;;4.28;;
64052;SDS011;50299;49.524;8.536;2022-08-19T14:41:31;4.30;;;4.05;;
64052;SDS011;50299;49.524;8.536;2022-08-19T14:43:58;5.18;;;4.78;;
64052;SDS011;50299;49.524;8.536;2022-08-19T14:46:27;5.07;;;4.68;;
64052;SDS011;50299;49.524;8.536;2022-08-19T14:48:55;5.70;;;5.18;;
64052;SDS011;50299;49.524;8.536;2022-08-19T14:51:22;5.25;;;4.07;;
64052;SDS011;50299;49.524;8.536;2022-08-19T14:53:50;4.20;;;3.60;;
64052;SDS011;50299;49.524;8.536;2022-08-19T14:56:18;3.85;;;3.65;;
64052;SDS011;50299;49.524;8.536;2022-08-19T14:58:47;4.32;;;3.97;;
64052;SDS011;50299;49.524;8.536;2022-08-19T15:01:18;4.70;;;4.25;;
64052;SDS011;50299;49.524;8.536;2022-08-19T15:03:47;5.75;;;5.25;;
64052;SDS011;50299;49.524;8.536;2022-08-19T15:06:14;5.10;;;4.70;;
64052;SDS011;50299;49.524;8.536;2022-08-19T15:08:41;5.28;;;4.75;;
64052;SDS011;50299;49.524;8.536;2022-08-19T15:11:10;4.55;;;4.25;;
64052;SDS011;50299;49.524;8.536;2022-08-19T15:13:38;5.70;;;5.28;;
64052;SDS011;50299;49.524;8.536;2022-08-19T15:16:05;5.85;;;5.35;;
64052;SDS011;50299;49.524;8.536;2022-08-19T15:18:43;4.32;;;4.03;;
64052;SDS011;50299;49.524;8.536;2022-08-19T15:21:12;6.68;;;5.43;;
64052;SDS011;50299;49.524;8.536;2022-08-19T15:23:40;5.88;;;5.38;;
64052;SDS011;50299;49.524;8.536;2022-08-19T15:26:10;5.65;;;5.15;;
64052;SDS011;50299;49.524;8.536;2022-08-19T15:28:41;5.00;;;4.60;;
64052;SDS011;50299;49.524;8.536;2022-08-19T15:31:08;4.63;;;4.22;;
64052;SDS011;50299;49.524;8.536;2022-08-19T15:33:50;4.38;;;3.40;;
64052;SDS011;50299;49.524;8.536;2022-08-19T15:36:17;4.93;;;4.53;;
64052;SDS011;50299;49.524;8.536;2022-08-19T15:38:44;5.05;;;4.13;;
64052;SDS011;50299;49.524;8.536;2022-08-19T15:41:16;4.60;;;4.22;;
64052;SDS011;50299;49.524;8.536;2022-08-19T15:43:52;4.90;;;4.57;;
64052;SDS011;50299;49.524;8.536;2022-08-19T15:46:22;4.50;;;4.00;;
64052;SDS011;50299;49.524;8.536;2022-08-19T15:48:50;5.03;;;4.63;;
64052;SDS011;50299;49.524;8.536;2022-08-19T15:51:26;5.20;;;4.70;;
64052;SDS011;50299;49.524;8.536;2022-08-19T15:56:20;4.95;;;4.03;;
64052;SDS011;50299;49.524;8.536;2022-08-19T15:58:52;4.85;;;4.32;;
64052;SDS011;50299;49.524;8.536;2022-08-19T16:01:37;4.10;;;3.90;;
64052;SDS011;50299;49.524;8.536;2022-08-19T16:04:22;3.85;;;3.42;;
64052;SDS011;50299;49.524;8.536;2022-08-19T16:07:07;4.60;;;4.20;;
64052;SDS011;50299;49.524;8.536;2022-08-19T16:09:37;3.83;;;3.53;;
64052;SDS011;50299;49.524;8.536;2022-08-19T16:12:04;4.75;;;4.40;;
64052;SDS011;50299;49.524;8.536;2022-08-19T16:14:31;4.22;;;4.03;;
64052;SDS011;50299;49.524;8.536;2022-08-19T16:17:00;4.68;;;4.35;;
64052;SDS011;50299;49.524;8.536;2022-08-19T16:19:27;4.15;;;3.85;;
64052;SDS011;50299;49.524;8.536;2022-08-19T16:21:54;4.32;;;4.05;;
64052;SDS011;50299;49.524;8.536;2022-08-19T16:24:22;5.25;;;4.75;;
64052;SDS011;50299;49.524;8.536;2022-08-19T16:26:54;5.78;;;5.38;;
64052;SDS011;50299;49.524;8.536;2022-08-19T16:29:21;4.75;;;4.45;;
64052;SDS011;50299;49.524;8.536;2022-08-19T16:31:59;4.55;;;4.25;;
64052;SDS011;50299;49.524;8.536;2022-08-19T16:34:28;5.68;;;5.28;;
64052;SDS011;50299;49.524;8.536;2022-08-19T16:36:55;5.10;;;4.60;;
64052;SDS011;50299;49.524;8.536;2022-08-19T16:39:22;4.18;;;3.80;;
64052;SDS011;50299;49.524;8.536;2022-08-19T16:41:49;5.28;;;4.60;;
64052;SDS011;50299;49.524;8.536;2022-08-19T16:44:17;5.53;;;5.13;;
64052;SDS011;50299;49.524;8.536;2022-08-19T16:46:45;5.63;;;5.30;;
64052;SDS011;50299;49.524;8.536;2022-08-19T16:49:24;5.88;;;5.47;;
64052;SDS011;50299;49.524;8.536;2022-08-19T16:52:14;5.55;;;5.10;;
64052;SDS011;50299;49.524;8.536;2022-08-19T16:54:42;4.10;;;3.80;;
64052;SDS011;50299;49.524;8.536;2022-08-19T16:57:10;4.80;;;4.40;;
64052;SDS011;50299;49.524;8.536;2022-08-19T16:59:37;6.18;;;5.38;;
64052;SDS011;50299;49.524;8.536;2022-08-19T17:02:15;6.60;;;6.05;;
64052;SDS011;50299;49.524;8.536;2022-08-19T17:04:42;6.28;;;5.70;;
64052;SDS011;50299;49.524;8.536;2022-08-19T17:07:09;5.75;;;4.45;;
64052;SDS011;50299;49.524;8.536;2022-08-19T17:09:36;5.13;;;4.65;;
64052;SDS011;50299;49.524;8.536;2022-08-19T17:12:03;4.60;;;4.25;;
64052;SDS011;50299;49.524;8.536;2022-08-19T17:14:30;5.15;;;4.75;;
64052;SDS011;50299;49.524;8.536;2022-08-19T17:16:57;5.05;;;4.63;;
64052;SDS011;50299;49.524;8.536;2022-08-19T17:19:23;5.82;;;5.43;;
64052;SDS011;50299;49.524;8.536;2022-08-19T17:21:50;5.53;;;5.07;;
64052;SDS011;50299;49.524;8.536;2022-08-19T17:24:16;5.70;;;5.30;;
64052;SDS011;50299;49.524;8.536;2022-08-19T17:26:43;5.50;;;5.10;;
64052;SDS011;50299;49.524;8.536;2022-08-19T17:29:09;5.20;;;4.80;;
64052;SDS011;50299;49.524;8.536;2022-08-19T17:31:36;6.47;;;6.03;;